sensor_id;sensor_type;location;lat;lon;timestamp;pressure;altitude;pressure_sealevel;temperature;humidity
37170;BME280;23062;13.952;100.608;2023-07-29T00:01:25;1004.37;;;32.03;57.83
37170;BME280;23062;13.952;100.608;2023-07-29T00:05:59;1004.43;;;32.04;58.11
37170;BME280;23062;13.952;100.608;2023-07-29T00:10:25;1004.41;;;32.05;58.11
37170;BME280;23062;13.952;100.608;2023-07-29T00:14:53;1004.45;;;32.06;58.08
37170;BME280;23062;13.952;100.608;2023-07-29T00:19:26;1004.47;;;32.03;58.32
37170;BME280;23062;13.952;100.608;2023-07-29T00:24:02;1004.58;;;32.07;58.77
37170;BME280;23062;13.952;100.608;2023-07-29T00:28:30;1004.65;;;32.03;59.00
37170;BME280;23062;13.952;100.608;2023-07-29T00:32:57;1004.64;;;32.04;59.19
37170;BME280;23062;13.952;100.608;2023-07-29T00:37:23;1004.65;;;32.08;59.12
37170;BME280;23062;13.952;100.608;2023-07-29T00:41:49;1004.70;;;32.04;59.28
37170;BME280;23062;13.952;100.608;2023-07-29T00:46:16;1004.89;;;32.13;58.95
37170;BME280;23062;13.952;100.608;2023-07-29T00:50:42;1004.98;;;32.28;58.42
37170;BME280;23062;13.952;100.608;2023-07-29T00:55:08;1005.05;;;32.16;59.08
37170;BME280;23062;13.952;100.608;2023-07-29T00:59:35;1005.18;;;32.14;59.90
37170;BME280;23062;13.952;100.608;2023-07-29T01:04:09;1005.23;;;32.12;60.73
37170;BME280;23062;13.952;100.608;2023-07-29T01:08:53;1005.34;;;32.11;60.82
37170;BME280;23062;13.952;100.608;2023-07-29T01:13:27;1005.66;;;32.16;60.86
37170;BME280;23062;13.952;100.608;2023-07-29T01:17:52;1005.63;;;32.16;61.07
37170;BME280;23062;13.952;100.608;2023-07-29T01:22:22;1005.69;;;32.19;60.93
37170;BME280;23062;13.952;100.608;2023-07-29T01:26:49;1005.82;;;32.19;61.06
37170;BME280;23062;13.952;100.608;2023-07-29T01:31:27;1005.87;;;32.16;60.95
37170;BME280;23062;13.952;100.608;2023-07-29T01:36:03;1005.92;;;32.20;60.95
37170;BME280;23062;13.952;100.608;2023-07-29T01:40:31;1006.00;;;32.24;61.00
37170;BME280;23062;13.952;100.608;2023-07-29T01:44:59;1006.14;;;32.21;61.22
37170;BME280;23062;13.952;100.608;2023-07-29T01:49:26;1006.22;;;32.28;60.71
37170;BME280;23062;13.952;100.608;2023-07-29T01:53:54;1006.25;;;32.28;60.49
37170;BME280;23062;13.952;100.608;2023-07-29T01:58:29;1006.32;;;32.32;60.26
37170;BME280;23062;13.952;100.608;2023-07-29T02:02:58;1006.32;;;32.33;60.13
37170;BME280;23062;13.952;100.608;2023-07-29T02:07:25;1006.35;;;32.33;60.07
37170;BME280;23062;13.952;100.608;2023-07-29T02:11:59;1006.30;;;32.28;60.21
37170;BME280;23062;13.952;100.608;2023-07-29T02:16:26;1006.29;;;32.32;59.68
37170;BME280;23062;13.952;100.608;2023-07-29T02:20:55;1006.24;;;32.31;59.89
37170;BME280;23062;13.952;100.608;2023-07-29T02:25:22;1006.25;;;32.31;60.04
37170;BME280;23062;13.952;100.608;2023-07-29T02:29:56;1006.27;;;32.31;60.08
37170;BME280;23062;13.952;100.608;2023-07-29T02:34:23;1006.28;;;32.34;59.77
37170;BME280;23062;13.952;100.608;2023-07-29T02:39:01;1006.27;;;32.35;59.70
37170;BME280;23062;13.952;100.608;2023-07-29T02:43:34;1006.26;;;32.40;59.55
37170;BME280;23062;13.952;100.608;2023-07-29T02:48:08;1006.21;;;32.40;59.44
37170;BME280;23062;13.952;100.608;2023-07-29T02:52:34;1006.19;;;32.40;59.36
37170;BME280;23062;13.952;100.608;2023-07-29T02:57:01;1006.15;;;32.40;59.06
37170;BME280;23062;13.952;100.608;2023-07-29T03:01:28;1006.23;;;32.39;58.92
37170;BME280;23062;13.952;100.608;2023-07-29T03:06:05;1006.31;;;32.42;58.90
37170;BME280;23062;13.952;100.608;2023-07-29T03:10:34;1006.32;;;32.45;58.61
37170;BME280;23062;13.952;100.608;2023-07-29T03:15:00;1006.38;;;32.46;58.72
37170;BME280;23062;13.952;100.608;2023-07-29T03:19:29;1006.32;;;32.46;59.03
37170;BME280;23062;13.952;100.608;2023-07-29T03:23:58;1006.24;;;32.48;59.06
37170;BME280;23062;13.952;100.608;2023-07-29T03:28:29;1006.24;;;32.50;58.96
37170;BME280;23062;13.952;100.608;2023-07-29T03:32:59;1006.19;;;32.50;58.83
37170;BME280;23062;13.952;100.608;2023-07-29T03:37:33;1006.17;;;32.53;58.73
37170;BME280;23062;13.952;100.608;2023-07-29T03:42:07;1006.10;;;32.57;58.54
37170;BME280;23062;13.952;100.608;2023-07-29T03:46:33;1006.06;;;32.57;58.60
37170;BME280;23062;13.952;100.608;2023-07-29T03:50:58;1006.06;;;32.58;58.56
37170;BME280;23062;13.952;100.608;2023-07-29T03:55:24;1005.90;;;32.60;58.31
37170;BME280;23062;13.952;100.608;2023-07-29T03:59:51;1005.83;;;32.63;58.01
37170;BME280;23062;13.952;100.608;2023-07-29T04:04:22;1005.91;;;32.67;57.86
37170;BME280;23062;13.952;100.608;2023-07-29T04:08:48;1005.84;;;32.63;57.76
37170;BME280;23062;13.952;100.608;2023-07-29T04:13:17;1005.78;;;32.68;57.54
37170;BME280;23062;13.952;100.608;2023-07-29T04:17:43;1005.72;;;32.67;57.50
37170;BME280;23062;13.952;100.608;2023-07-29T04:22:10;1005.71;;;32.69;57.48
37170;BME280;23062;13.952;100.608;2023-07-29T04:26:36;1005.80;;;32.70;57.16
37170;BME280;23062;13.952;100.608;2023-07-29T04:31:05;1005.80;;;32.71;57.23
37170;BME280;23062;13.952;100.608;2023-07-29T04:35:33;1005.77;;;32.73;56.85
37170;BME280;23062;13.952;100.608;2023-07-29T04:40:02;1005.78;;;32.74;56.43
37170;BME280;23062;13.952;100.608;2023-07-29T04:44:31;1005.73;;;32.76;56.07
37170;BME280;23062;13.952;100.608;2023-07-29T04:48:57;1005.64;;;32.79;56.02
37170;BME280;23062;13.952;100.608;2023-07-29T04:53:32;1005.67;;;32.80;56.03
37170;BME280;23062;13.952;100.608;2023-07-29T04:57:59;1005.53;;;32.83;55.87
37170;BME280;23062;13.952;100.608;2023-07-29T05:02:35;1005.44;;;32.96;54.79
37170;BME280;23062;13.952;100.608;2023-07-29T05:07:09;1005.32;;;32.93;54.90
37170;BME280;23062;13.952;100.608;2023-07-29T05:11:36;1005.27;;;32.93;55.02
37170;BME280;23062;13.952;100.608;2023-07-29T05:16:05;1005.19;;;32.93;55.45
37170;BME280;23062;13.952;100.608;2023-07-29T05:20:30;1005.20;;;33.01;55.23
37170;BME280;23062;13.952;100.608;2023-07-29T05:24:57;1005.17;;;33.05;55.05
37170;BME280;23062;13.952;100.608;2023-07-29T05:29:23;1005.12;;;33.09;54.72
37170;BME280;23062;13.952;100.608;2023-07-29T05:33:49;1005.04;;;33.07;54.48
37170;BME280;23062;13.952;100.608;2023-07-29T05:38:23;1004.88;;;33.03;54.65
37170;BME280;23062;13.952;100.608;2023-07-29T05:42:49;1004.98;;;33.09;54.32
37170;BME280;23062;13.952;100.608;2023-07-29T05:47:24;1005.03;;;33.11;54.08
37170;BME280;23062;13.952;100.608;2023-07-29T05:51:52;1004.93;;;33.16;53.87
37170;BME280;23062;13.952;100.608;2023-07-29T05:56:17;1004.86;;;33.11;53.93
37170;BME280;23062;13.952;100.608;2023-07-29T06:00:43;1004.90;;;33.14;53.52
37170;BME280;23062;13.952;100.608;2023-07-29T06:05:11;1004.82;;;33.16;53.05
37170;BME280;23062;13.952;100.608;2023-07-29T06:09:37;1004.77;;;33.16;53.08
37170;BME280;23062;13.952;100.608;2023-07-29T06:14:04;1004.80;;;33.17;52.65
37170;BME280;23062;13.952;100.608;2023-07-29T06:18:32;1004.73;;;33.16;52.27
37170;BME280;23062;13.952;100.608;2023-07-29T06:23:00;1004.78;;;33.14;52.40
37170;BME280;23062;13.952;100.608;2023-07-29T06:27:27;1004.65;;;33.16;52.32
37170;BME280;23062;13.952;100.608;2023-07-29T06:31:55;1004.53;;;33.17;52.58
37170;BME280;23062;13.952;100.608;2023-07-29T06:36:29;1004.41;;;33.31;51.61
37170;BME280;23062;13.952;100.608;2023-07-29T06:40:56;1004.41;;;33.24;52.14
37170;BME280;23062;13.952;100.608;2023-07-29T06:45:22;1004.29;;;33.23;52.72
37170;BME280;23062;13.952;100.608;2023-07-29T06:49:57;1004.22;;;33.26;52.49
37170;BME280;23062;13.952;100.608;2023-07-29T06:54:29;1004.15;;;33.24;52.78
37170;BME280;23062;13.952;100.608;2023-07-29T06:58:55;1004.05;;;33.24;52.89
37170;BME280;23062;13.952;100.608;2023-07-29T07:03:20;1004.03;;;33.26;52.40
37170;BME280;23062;13.952;100.608;2023-07-29T07:07:47;1004.09;;;33.29;52.43
37170;BME280;23062;13.952;100.608;2023-07-29T07:12:14;1003.97;;;33.26;52.58
37170;BME280;23062;13.952;100.608;2023-07-29T07:16:48;1003.90;;;33.27;52.51
37170;BME280;23062;13.952;100.608;2023-07-29T07:21:14;1003.87;;;33.29;52.46
37170;BME280;23062;13.952;100.608;2023-07-29T07:25:49;1003.86;;;33.30;52.61
37170;BME280;23062;13.952;100.608;2023-07-29T07:30:20;1003.75;;;33.30;52.72
37170;BME280;23062;13.952;100.608;2023-07-29T07:34:54;1003.66;;;33.34;52.96
37170;BME280;23062;13.952;100.608;2023-07-29T07:39:26;1003.58;;;33.31;53.00
37170;BME280;23062;13.952;100.608;2023-07-29T07:44:00;1003.51;;;33.31;53.31
37170;BME280;23062;13.952;100.608;2023-07-29T07:48:26;1003.45;;;33.30;53.45
37170;BME280;23062;13.952;100.608;2023-07-29T07:52:52;1003.41;;;33.31;53.47
37170;BME280;23062;13.952;100.608;2023-07-29T07:57:27;1003.30;;;33.35;53.28
37170;BME280;23062;13.952;100.608;2023-07-29T08:01:54;1003.26;;;33.37;53.18
37170;BME280;23062;13.952;100.608;2023-07-29T08:06:28;1003.25;;;33.40;53.22
37170;BME280;23062;13.952;100.608;2023-07-29T08:10:58;1003.24;;;33.39;53.25
37170;BME280;23062;13.952;100.608;2023-07-29T08:15:24;1003.15;;;33.40;53.29
37170;BME280;23062;13.952;100.608;2023-07-29T08:19:57;1003.01;;;33.42;53.16
37170;BME280;23062;13.952;100.608;2023-07-29T08:29:08;1002.99;;;33.40;53.44
37170;BME280;23062;13.952;100.608;2023-07-29T08:33:35;1002.88;;;33.38;53.50
37170;BME280;23062;13.952;100.608;2023-07-29T08:38:07;1002.84;;;33.36;53.47
37170;BME280;23062;13.952;100.608;2023-07-29T08:42:33;1002.89;;;33.40;53.59
37170;BME280;23062;13.952;100.608;2023-07-29T08:47:07;1002.93;;;33.37;53.65
37170;BME280;23062;13.952;100.608;2023-07-29T08:51:33;1002.93;;;33.40;53.66
37170;BME280;23062;13.952;100.608;2023-07-29T08:56:08;1002.97;;;33.40;54.18
37170;BME280;23062;13.952;100.608;2023-07-29T09:00:38;1002.87;;;33.40;54.08
37170;BME280;23062;13.952;100.608;2023-07-29T09:05:08;1002.92;;;33.40;54.06
37170;BME280;23062;13.952;100.608;2023-07-29T09:09:33;1002.93;;;33.38;54.11
37170;BME280;23062;13.952;100.608;2023-07-29T09:13:59;1002.97;;;33.37;54.38
37170;BME280;23062;13.952;100.608;2023-07-29T09:18:29;1003.04;;;33.33;53.95
37170;BME280;23062;13.952;100.608;2023-07-29T09:23:00;1003.04;;;33.30;53.99
37170;BME280;23062;13.952;100.608;2023-07-29T09:27:34;1003.07;;;33.31;54.24
37170;BME280;23062;13.952;100.608;2023-07-29T09:32:31;1002.99;;;33.29;54.71
37170;BME280;23062;13.952;100.608;2023-07-29T09:36:53;1002.97;;;33.31;54.84
37170;BME280;23062;13.952;100.608;2023-07-29T09:41:32;1002.91;;;33.38;54.94
37170;BME280;23062;13.952;100.608;2023-07-29T09:59:56;1002.87;;;33.36;55.31
37170;BME280;23062;13.952;100.608;2023-07-29T10:04:23;1002.90;;;33.37;55.12
37170;BME280;23062;13.952;100.608;2023-07-29T10:08:50;1002.98;;;33.40;54.94
37170;BME280;23062;13.952;100.608;2023-07-29T10:13:25;1003.07;;;33.34;55.18
37170;BME280;23062;13.952;100.608;2023-07-29T10:17:52;1003.19;;;33.34;55.08
37170;BME280;23062;13.952;100.608;2023-07-29T10:22:21;1003.28;;;33.37;55.04
37170;BME280;23062;13.952;100.608;2023-07-29T10:26:54;1003.26;;;33.33;55.06
37170;BME280;23062;13.952;100.608;2023-07-29T10:31:26;1003.29;;;33.29;55.09
37170;BME280;23062;13.952;100.608;2023-07-29T10:35:55;1003.41;;;33.27;55.11
37170;BME280;23062;13.952;100.608;2023-07-29T10:40:22;1003.47;;;33.33;54.93
37170;BME280;23062;13.952;100.608;2023-07-29T10:45:00;1003.53;;;33.29;55.09
37170;BME280;23062;13.952;100.608;2023-07-29T10:49:31;1003.62;;;33.32;54.97
37170;BME280;23062;13.952;100.608;2023-07-29T10:53:59;1003.69;;;33.32;54.94
37170;BME280;23062;13.952;100.608;2023-07-29T10:58:34;1003.77;;;33.27;55.17
37170;BME280;23062;13.952;100.608;2023-07-29T11:03:06;1003.77;;;33.24;55.25
37170;BME280;23062;13.952;100.608;2023-07-29T11:07:46;1003.78;;;33.27;55.19
37170;BME280;23062;13.952;100.608;2023-07-29T11:17:25;1003.81;;;33.24;55.39
37170;BME280;23062;13.952;100.608;2023-07-29T11:21:52;1003.75;;;33.29;55.35
37170;BME280;23062;13.952;100.608;2023-07-29T11:26:20;1003.87;;;33.27;55.31
37170;BME280;23062;13.952;100.608;2023-07-29T11:30:45;1004.00;;;33.25;55.49
37170;BME280;23062;13.952;100.608;2023-07-29T11:35:19;1004.01;;;33.24;55.55
37170;BME280;23062;13.952;100.608;2023-07-29T11:39:46;1004.09;;;33.25;55.57
37170;BME280;23062;13.952;100.608;2023-07-29T11:44:19;1004.10;;;33.24;55.73
37170;BME280;23062;13.952;100.608;2023-07-29T11:48:46;1004.11;;;33.25;55.66
37170;BME280;23062;13.952;100.608;2023-07-29T11:53:12;1004.14;;;33.24;55.70
37170;BME280;23062;13.952;100.608;2023-07-29T11:57:39;1004.26;;;33.24;55.54
37170;BME280;23062;13.952;100.608;2023-07-29T12:02:11;1004.35;;;33.23;55.65
37170;BME280;23062;13.952;100.608;2023-07-29T12:06:38;1004.36;;;33.24;55.58
37170;BME280;23062;13.952;100.608;2023-07-29T12:11:06;1004.46;;;33.21;55.61
37170;BME280;23062;13.952;100.608;2023-07-29T12:15:38;1004.58;;;33.20;55.54
37170;BME280;23062;13.952;100.608;2023-07-29T12:20:08;1004.62;;;33.21;55.45
37170;BME280;23062;13.952;100.608;2023-07-29T12:24:43;1004.68;;;33.25;55.26
37170;BME280;23062;13.952;100.608;2023-07-29T12:29:17;1004.75;;;33.24;55.29
37170;BME280;23062;13.952;100.608;2023-07-29T12:33:47;1004.70;;;33.21;55.34
37170;BME280;23062;13.952;100.608;2023-07-29T12:38:21;1004.66;;;33.17;55.47
37170;BME280;23062;13.952;100.608;2023-07-29T12:43:03;1004.72;;;33.20;55.33
37170;BME280;23062;13.952;100.608;2023-07-29T12:47:31;1004.86;;;33.21;55.32
37170;BME280;23062;13.952;100.608;2023-07-29T12:51:58;1005.02;;;33.17;55.42
37170;BME280;23062;13.952;100.608;2023-07-29T12:56:34;1005.24;;;33.19;55.35
37170;BME280;23062;13.952;100.608;2023-07-29T13:01:01;1005.34;;;33.17;55.49
37170;BME280;23062;13.952;100.608;2023-07-29T13:05:31;1005.27;;;33.16;55.40
37170;BME280;23062;13.952;100.608;2023-07-29T13:09:57;1005.38;;;33.14;55.44
37170;BME280;23062;13.952;100.608;2023-07-29T13:14:24;1005.55;;;33.17;55.32
37170;BME280;23062;13.952;100.608;2023-07-29T13:18:52;1005.54;;;33.13;55.37
37170;BME280;23062;13.952;100.608;2023-07-29T13:23:21;1005.58;;;33.16;55.26
37170;BME280;23062;13.952;100.608;2023-07-29T13:27:49;1005.53;;;33.15;55.20
37170;BME280;23062;13.952;100.608;2023-07-29T13:32:19;1005.57;;;33.13;55.19
37170;BME280;23062;13.952;100.608;2023-07-29T13:36:48;1005.67;;;33.18;55.11
37170;BME280;23062;13.952;100.608;2023-07-29T13:41:16;1005.68;;;33.13;55.21
37170;BME280;23062;13.952;100.608;2023-07-29T13:45:43;1005.65;;;33.12;55.36
37170;BME280;23062;13.952;100.608;2023-07-29T13:50:12;1005.66;;;33.13;55.25
37170;BME280;23062;13.952;100.608;2023-07-29T13:54:41;1005.80;;;33.10;55.45
37170;BME280;23062;13.952;100.608;2023-07-29T13:59:19;1005.92;;;33.07;55.47
37170;BME280;23062;13.952;100.608;2023-07-29T14:03:48;1005.98;;;33.06;55.54
37170;BME280;23062;13.952;100.608;2023-07-29T14:08:15;1006.01;;;33.07;55.50
37170;BME280;23062;13.952;100.608;2023-07-29T14:12:50;1005.99;;;33.07;55.59
37170;BME280;23062;13.952;100.608;2023-07-29T14:17:19;1006.06;;;33.06;55.61
37170;BME280;23062;13.952;100.608;2023-07-29T14:21:47;1006.06;;;33.12;55.43
37170;BME280;23062;13.952;100.608;2023-07-29T14:26:15;1006.18;;;33.13;55.37
37170;BME280;23062;13.952;100.608;2023-07-29T14:30:42;1006.24;;;33.11;55.59
37170;BME280;23062;13.952;100.608;2023-07-29T14:35:10;1006.26;;;33.10;55.49
37170;BME280;23062;13.952;100.608;2023-07-29T14:39:46;1006.33;;;33.09;55.55
37170;BME280;23062;13.952;100.608;2023-07-29T14:44:14;1006.39;;;33.12;55.60
37170;BME280;23062;13.952;100.608;2023-07-29T14:48:41;1006.44;;;33.11;55.60
37170;BME280;23062;13.952;100.608;2023-07-29T14:53:11;1006.42;;;33.09;55.50
37170;BME280;23062;13.952;100.608;2023-07-29T14:57:36;1006.49;;;33.06;55.54
37170;BME280;23062;13.952;100.608;2023-07-29T15:02:09;1006.64;;;33.02;55.71
37170;BME280;23062;13.952;100.608;2023-07-29T15:06:43;1006.67;;;32.97;55.88
37170;BME280;23062;13.952;100.608;2023-07-29T15:11:19;1006.75;;;32.98;56.06
37170;BME280;23062;13.952;100.608;2023-07-29T15:15:52;1006.80;;;32.96;56.06
37170;BME280;23062;13.952;100.608;2023-07-29T15:20:22;1006.75;;;33.00;56.05
37170;BME280;23062;13.952;100.608;2023-07-29T15:24:50;1006.77;;;32.97;56.18
37170;BME280;23062;13.952;100.608;2023-07-29T15:29:16;1006.83;;;33.02;56.14
37170;BME280;23062;13.952;100.608;2023-07-29T15:33:50;1006.75;;;33.03;55.96
37170;BME280;23062;13.952;100.608;2023-07-29T15:38:16;1006.72;;;33.04;55.87
37170;BME280;23062;13.952;100.608;2023-07-29T15:42:49;1006.64;;;33.03;55.96
37170;BME280;23062;13.952;100.608;2023-07-29T15:47:18;1006.61;;;33.01;55.96
37170;BME280;23062;13.952;100.608;2023-07-29T15:51:48;1006.61;;;33.03;55.87
37170;BME280;23062;13.952;100.608;2023-07-29T15:56:15;1006.63;;;33.02;56.12
37170;BME280;23062;13.952;100.608;2023-07-29T16:00:42;1006.63;;;33.03;56.04
37170;BME280;23062;13.952;100.608;2023-07-29T16:05:14;1006.67;;;32.98;56.23
37170;BME280;23062;13.952;100.608;2023-07-29T16:09:41;1006.80;;;32.99;56.04
37170;BME280;23062;13.952;100.608;2023-07-29T16:14:08;1006.71;;;32.98;56.04
37170;BME280;23062;13.952;100.608;2023-07-29T16:18:41;1006.61;;;33.00;55.98
37170;BME280;23062;13.952;100.608;2023-07-29T16:23:11;1006.60;;;32.97;56.13
37170;BME280;23062;13.952;100.608;2023-07-29T16:27:38;1006.65;;;33.01;56.02
37170;BME280;23062;13.952;100.608;2023-07-29T16:32:06;1006.61;;;33.01;56.06
37170;BME280;23062;13.952;100.608;2023-07-29T16:36:35;1006.53;;;33.00;56.09
37170;BME280;23062;13.952;100.608;2023-07-29T16:41:01;1006.46;;;32.99;56.18
37170;BME280;23062;13.952;100.608;2023-07-29T16:45:27;1006.29;;;32.98;56.17
37170;BME280;23062;13.952;100.608;2023-07-29T16:49:52;1006.16;;;32.99;56.12
37170;BME280;23062;13.952;100.608;2023-07-29T16:54:20;1006.02;;;32.98;56.18
37170;BME280;23062;13.952;100.608;2023-07-29T16:58:55;1006.04;;;32.96;56.25
37170;BME280;23062;13.952;100.608;2023-07-29T17:03:24;1006.00;;;32.96;56.25
37170;BME280;23062;13.952;100.608;2023-07-29T17:07:50;1005.96;;;32.96;56.32
37170;BME280;23062;13.952;100.608;2023-07-29T17:12:16;1005.94;;;32.95;56.38
37170;BME280;23062;13.952;100.608;2023-07-29T17:16:50;1005.89;;;32.95;56.37
37170;BME280;23062;13.952;100.608;2023-07-29T17:21:15;1005.83;;;32.95;56.47
37170;BME280;23062;13.952;100.608;2023-07-29T17:25:42;1005.84;;;32.93;56.48
37170;BME280;23062;13.952;100.608;2023-07-29T17:30:11;1005.71;;;32.95;56.53
37170;BME280;23062;13.952;100.608;2023-07-29T17:34:40;1005.65;;;32.92;56.67
37170;BME280;23062;13.952;100.608;2023-07-29T17:39:15;1005.57;;;32.92;56.62
37170;BME280;23062;13.952;100.608;2023-07-29T17:43:44;1005.46;;;32.92;56.67
37170;BME280;23062;13.952;100.608;2023-07-29T17:48:13;1005.45;;;32.91;56.71
37170;BME280;23062;13.952;100.608;2023-07-29T17:52:40;1005.47;;;32.92;56.74
37170;BME280;23062;13.952;100.608;2023-07-29T17:57:15;1005.35;;;32.91;56.69
37170;BME280;23062;13.952;100.608;2023-07-29T18:01:42;1005.25;;;32.90;56.73
37170;BME280;23062;13.952;100.608;2023-07-29T18:06:17;1005.20;;;32.89;56.80
37170;BME280;23062;13.952;100.608;2023-07-29T18:10:50;1005.08;;;32.90;56.80
37170;BME280;23062;13.952;100.608;2023-07-29T18:15:17;1005.08;;;32.86;56.99
37170;BME280;23062;13.952;100.608;2023-07-29T18:19:52;1005.09;;;32.88;56.85
37170;BME280;23062;13.952;100.608;2023-07-29T18:24:27;1005.13;;;32.88;56.90
37170;BME280;23062;13.952;100.608;2023-07-29T18:28:55;1005.16;;;32.88;56.90
37170;BME280;23062;13.952;100.608;2023-07-29T18:33:28;1005.11;;;32.87;56.91
37170;BME280;23062;13.952;100.608;2023-07-29T18:37:53;1005.01;;;32.85;57.07
37170;BME280;23062;13.952;100.608;2023-07-29T18:42:21;1004.97;;;32.84;57.16
37170;BME280;23062;13.952;100.608;2023-07-29T18:46:50;1004.97;;;32.85;57.05
37170;BME280;23062;13.952;100.608;2023-07-29T18:51:16;1004.94;;;32.85;56.97
37170;BME280;23062;13.952;100.608;2023-07-29T18:55:48;1004.88;;;32.82;57.02
37170;BME280;23062;13.952;100.608;2023-07-29T19:00:24;1004.81;;;32.83;56.96
37170;BME280;23062;13.952;100.608;2023-07-29T19:04:51;1004.77;;;32.81;57.03
37170;BME280;23062;13.952;100.608;2023-07-29T19:09:23;1004.75;;;32.77;57.21
37170;BME280;23062;13.952;100.608;2023-07-29T19:13:50;1004.72;;;32.83;56.90
37170;BME280;23062;13.952;100.608;2023-07-29T19:18:24;1004.63;;;32.77;57.18
37170;BME280;23062;13.952;100.608;2023-07-29T19:22:51;1004.56;;;32.78;57.13
37170;BME280;23062;13.952;100.608;2023-07-29T19:27:19;1004.58;;;32.80;57.08
37170;BME280;23062;13.952;100.608;2023-07-29T19:31:46;1004.55;;;32.76;57.19
37170;BME280;23062;13.952;100.608;2023-07-29T19:36:16;1004.47;;;32.75;57.34
37170;BME280;23062;13.952;100.608;2023-07-29T19:40:43;1004.41;;;32.77;57.26
37170;BME280;23062;13.952;100.608;2023-07-29T19:45:10;1004.44;;;32.73;57.40
37170;BME280;23062;13.952;100.608;2023-07-29T19:49:39;1004.37;;;32.67;57.73
37170;BME280;23062;13.952;100.608;2023-07-29T19:54:09;1004.34;;;32.64;57.90
37170;BME280;23062;13.952;100.608;2023-07-29T19:58:38;1004.30;;;32.63;57.94
37170;BME280;23062;13.952;100.608;2023-07-29T20:03:12;1004.25;;;32.70;57.63
37170;BME280;23062;13.952;100.608;2023-07-29T20:07:44;1004.29;;;32.61;58.06
37170;BME280;23062;13.952;100.608;2023-07-29T20:12:12;1004.30;;;32.66;57.89
37170;BME280;23062;13.952;100.608;2023-07-29T20:16:39;1004.29;;;32.62;58.07
37170;BME280;23062;13.952;100.608;2023-07-29T20:21:14;1004.24;;;32.68;57.81
37170;BME280;23062;13.952;100.608;2023-07-29T20:25:40;1004.14;;;32.66;57.98
37170;BME280;23062;13.952;100.608;2023-07-29T20:30:07;1004.13;;;32.66;57.94
37170;BME280;23062;13.952;100.608;2023-07-29T20:34:40;1004.16;;;32.67;57.93
37170;BME280;23062;13.952;100.608;2023-07-29T20:39:06;1004.11;;;32.61;58.05
37170;BME280;23062;13.952;100.608;2023-07-29T20:43:39;1004.09;;;32.64;57.99
37170;BME280;23062;13.952;100.608;2023-07-29T20:48:13;1004.07;;;32.68;57.80
37170;BME280;23062;13.952;100.608;2023-07-29T20:52:45;1004.03;;;32.64;57.97
37170;BME280;23062;13.952;100.608;2023-07-29T20:57:13;1004.02;;;32.64;57.97
37170;BME280;23062;13.952;100.608;2023-07-29T21:01:41;1003.99;;;32.68;57.77
37170;BME280;23062;13.952;100.608;2023-07-29T21:06:15;1003.98;;;32.65;57.94
37170;BME280;23062;13.952;100.608;2023-07-29T21:10:41;1003.96;;;32.72;57.65
37170;BME280;23062;13.952;100.608;2023-07-29T21:15:09;1003.90;;;32.71;57.70
37170;BME280;23062;13.952;100.608;2023-07-29T21:19:36;1003.91;;;32.70;57.64
37170;BME280;23062;13.952;100.608;2023-07-29T21:24:03;1003.90;;;32.70;57.62
37170;BME280;23062;13.952;100.608;2023-07-29T21:28:37;1003.91;;;32.70;57.62
37170;BME280;23062;13.952;100.608;2023-07-29T21:33:03;1003.93;;;32.68;57.68
37170;BME280;23062;13.952;100.608;2023-07-29T21:37:30;1003.98;;;32.68;57.68
37170;BME280;23062;13.952;100.608;2023-07-29T21:42:04;1004.04;;;32.66;57.79
37170;BME280;23062;13.952;100.608;2023-07-29T21:46:33;1004.08;;;32.68;57.72
37170;BME280;23062;13.952;100.608;2023-07-29T21:50:59;1004.09;;;32.66;57.77
37170;BME280;23062;13.952;100.608;2023-07-29T21:55:25;1004.13;;;32.67;57.78
37170;BME280;23062;13.952;100.608;2023-07-29T21:59:55;1004.20;;;32.65;57.86
37170;BME280;23062;13.952;100.608;2023-07-29T22:04:23;1004.16;;;32.66;57.78
37170;BME280;23062;13.952;100.608;2023-07-29T22:08:50;1004.25;;;32.66;57.82
37170;BME280;23062;13.952;100.608;2023-07-29T22:13:19;1004.23;;;32.64;57.89
37170;BME280;23062;13.952;100.608;2023-07-29T22:17:45;1004.37;;;32.63;57.94
37170;BME280;23062;13.952;100.608;2023-07-29T22:22:15;1004.45;;;32.63;57.90
37170;BME280;23062;13.952;100.608;2023-07-29T22:26:43;1004.41;;;32.64;57.92
37170;BME280;23062;13.952;100.608;2023-07-29T22:31:09;1004.48;;;32.61;57.99
37170;BME280;23062;13.952;100.608;2023-07-29T22:35:40;1004.44;;;32.61;58.02
37170;BME280;23062;13.952;100.608;2023-07-29T22:40:06;1004.47;;;32.61;58.00
37170;BME280;23062;13.952;100.608;2023-07-29T22:44:33;1004.49;;;32.61;58.05
37170;BME280;23062;13.952;100.608;2023-07-29T22:49:02;1004.48;;;32.60;58.03
37170;BME280;23062;13.952;100.608;2023-07-29T22:53:33;1004.50;;;32.60;58.03
37170;BME280;23062;13.952;100.608;2023-07-29T22:57:58;1004.53;;;32.59;58.09
37170;BME280;23062;13.952;100.608;2023-07-29T23:02:33;1004.55;;;32.58;58.06
37170;BME280;23062;13.952;100.608;2023-07-29T23:07:00;1004.62;;;32.57;58.09
37170;BME280;23062;13.952;100.608;2023-07-29T23:11:27;1004.60;;;32.59;58.09
37170;BME280;23062;13.952;100.608;2023-07-29T23:15:54;1004.65;;;32.57;58.14
37170;BME280;23062;13.952;100.608;2023-07-29T23:20:23;1004.63;;;32.56;58.15
37170;BME280;23062;13.952;100.608;2023-07-29T23:24:49;1004.70;;;32.56;58.24
37170;BME280;23062;13.952;100.608;2023-07-29T23:29:20;1004.75;;;32.57;58.18
37170;BME280;23062;13.952;100.608;2023-07-29T23:33:54;1004.77;;;32.54;58.23
37170;BME280;23062;13.952;100.608;2023-07-29T23:38:27;1004.78;;;32.54;58.21
37170;BME280;23062;13.952;100.608;2023-07-29T23:43:04;1004.84;;;32.53;58.26
37170;BME280;23062;13.952;100.608;2023-07-29T23:47:31;1004.94;;;32.53;58.29
37170;BME280;23062;13.952;100.608;2023-07-29T23:51:58;1005.08;;;32.53;58.25